Time;durP1;ratioP1;P1;durP2;ratioP2;P2;SDS_P1;SDS_P2;PMS_P1;PMS_P2;Temp;Humidity;BMP_temperature;BMP_pressure;BME280_temperature;BME280_humidity;BME280_pressure;Samples;Min_cycle;Max_cycle;Signal;HPM_P1;HPM_P2
2022/01/31 00:00:42;;;;;;;0.70;0.70;;;4.50;99.90;;;;;;5113610;28;20911;-68
2022/01/31 00:03:30;;;;;;;0.40;0.40;;;4.40;99.90;;;;;;5128031;28;20421;-67
2022/01/31 00:06:17;;;;;;;0.50;0.50;;;4.40;99.90;;;;;;5131923;28;20461;-67
2022/01/31 00:09:04;;;;;;;0.40;0.40;;;4.40;99.90;;;;;;5132391;28;20422;-68
2022/01/31 00:11:58;;;;;;;1.37;1.27;;;4.50;99.90;;;;;;5132978;28;20475;-68
2022/01/31 00:14:48;;;;;;;0.40;0.40;;;4.40;99.90;;;;;;5119489;28;20504;-67
2022/01/31 00:17:36;;;;;;;1.53;0.80;;;4.30;99.90;;;;;;5113580;28;20824;-67
2022/01/31 00:20:23;;;;;;;0.40;0.40;;;4.30;99.90;;;;;;5128320;28;20436;-67
2022/01/31 00:23:10;;;;;;;0.70;0.70;;;4.30;99.90;;;;;;5135249;28;20838;-67
2022/01/31 00:25:57;;;;;;;4.97;1.67;;;4.20;99.90;;;;;;5135169;28;20460;-67
2022/01/31 00:28:44;;;;;;;1.80;1.07;;;4.20;99.90;;;;;;5135891;27;20961;-67
2022/01/31 00:31:32;;;;;;;0.40;0.40;;;4.20;99.90;;;;;;5135347;28;20424;-67
2022/01/31 00:34:20;;;;;;;0.50;0.50;;;4.20;99.90;;;;;;5135358;28;20424;-67
2022/01/31 00:37:07;;;;;;;0.97;0.97;;;4.20;99.90;;;;;;5133110;28;20893;-67
2022/01/31 00:39:54;;;;;;;0.40;0.40;;;4.20;99.90;;;;;;5134670;28;20425;-67
2022/01/31 00:42:41;;;;;;;1.50;1.40;;;4.20;99.90;;;;;;5135740;27;20413;-68
2022/01/31 00:45:30;;;;;;;0.87;0.87;;;4.30;99.90;;;;;;5133954;28;20456;-68
2022/01/31 00:48:24;;;;;;;10.20;2.53;;;4.20;99.90;;;;;;5134862;28;20865;-69
2022/01/31 00:51:12;;;;;;;1.37;1.37;;;4.20;99.90;;;;;;5136338;27;20417;-68
2022/01/31 00:53:59;;;;;;;2.50;0.90;;;4.20;99.90;;;;;;5135473;27;20428;-67
2022/01/31 00:56:46;;;;;;;0.50;0.50;;;4.20;99.90;;;;;;5138571;27;20472;-67
2022/01/31 00:59:33;;;;;;;0.50;0.50;;;4.20;99.90;;;;;;5138660;27;20420;-67
2022/01/31 01:02:20;;;;;;;0.50;0.50;;;4.30;99.90;;;;;;5140079;27;20417;-67
2022/01/31 01:05:07;;;;;;;0.40;0.40;;;4.20;99.90;;;;;;5157929;27;20498;-67
2022/01/31 01:07:56;;;;;;;0.40;0.40;;;4.20;99.90;;;;;;5156908;27;20440;-67
2022/01/31 01:10:42;;;;;;;0.40;0.40;;;4.30;99.90;;;;;;5156920;27;20421;-67
2022/01/31 01:13:29;;;;;;;0.47;0.47;;;4.20;99.90;;;;;;5156128;27;20898;-68
2022/01/31 01:16:16;;;;;;;0.40;0.40;;;4.30;99.90;;;;;;5154968;27;20425;-67
2022/01/31 01:19:04;;;;;;;1.53;1.43;;;4.30;99.90;;;;;;5156044;27;20428;-70
2022/01/31 01:21:50;;;;;;;2.43;2.23;;;4.30;99.90;;;;;;5156622;27;20429;-67
2022/01/31 01:24:39;;;;;;;1.30;0.93;;;4.30;99.90;;;;;;5155889;27;20432;-67
2022/01/31 01:27:26;;;;;;;0.40;0.40;;;4.30;99.90;;;;;;5155854;27;20498;-68
2022/01/31 01:30:14;;;;;;;0.40;0.40;;;4.30;99.90;;;;;;5153526;27;20424;-67
2022/01/31 01:33:07;;;;;;;0.50;0.50;;;4.30;99.90;;;;;;5137125;27;20816;-67
2022/01/31 01:35:55;;;;;;;0.40;0.40;;;4.20;99.90;;;;;;5137998;27;20425;-67
2022/01/31 01:38:42;;;;;;;1.37;1.27;;;4.20;99.90;;;;;;5136441;27;20417;-67
2022/01/31 01:41:30;;;;;;;0.63;0.63;;;4.30;99.90;;;;;;5136668;27;20424;-68
2022/01/31 01:44:17;;;;;;;0.50;0.50;;;4.20;99.90;;;;;;5136057;27;20424;-67
2022/01/31 01:47:04;;;;;;;5.73;2.00;;;4.20;99.90;;;;;;5136587;27;20834;-67
2022/01/31 01:49:52;;;;;;;0.67;0.60;;;4.20;99.90;;;;;;5137300;27;20421;-67
2022/01/31 01:52:39;;;;;;;3.30;0.60;;;4.20;99.90;;;;;;5136508;27;20471;-67
2022/01/31 01:55:26;;;;;;;0.80;0.80;;;4.10;99.90;;;;;;5137072;27;20521;-66
2022/01/31 01:58:16;;;;;;;0.40;0.40;;;4.20;99.90;;;;;;5136846;27;20820;-67
2022/01/31 02:01:03;;;;;;;1.53;1.20;;;4.10;99.90;;;;;;5136773;27;20421;-68
2022/01/31 02:03:50;;;;;;;1.27;1.17;;;4.10;99.90;;;;;;5136390;27;20482;-67
2022/01/31 02:06:37;;;;;;;0.70;0.70;;;4.10;99.90;;;;;;5135611;27;21003;-67
2022/01/31 02:09:27;;;;;;;0.40;0.40;;;4.10;99.90;;;;;;5136227;27;20439;-67
2022/01/31 02:12:13;;;;;;;0.93;0.90;;;4.10;99.90;;;;;;5136512;27;20455;-68
2022/01/31 02:15:02;;;;;;;0.80;0.80;;;4.10;99.90;;;;;;5136971;27;20420;-67
2022/01/31 02:17:48;;;;;;;0.77;0.60;;;4.30;99.90;;;;;;5135128;27;21035;-67
2022/01/31 02:20:39;;;;;;;0.50;0.50;;;4.20;99.90;;;;;;5121220;27;20425;-67
2022/01/31 02:23:28;;;;;;;0.40;0.40;;;4.10;99.90;;;;;;5115839;28;20930;-67
2022/01/31 02:26:15;;;;;;;0.80;0.80;;;4.10;99.90;;;;;;5115837;28;20840;-67
2022/01/31 02:29:02;;;;;;;0.50;0.50;;;4.10;99.90;;;;;;5115595;28;20429;-67
2022/01/31 02:31:49;;;;;;;0.47;0.47;;;4.20;99.90;;;;;;5116092;28;20467;-70
2022/01/31 02:34:36;;;;;;;0.50;0.50;;;4.20;99.90;;;;;;5115697;28;20503;-67
2022/01/31 02:37:24;;;;;;;1.10;1.00;;;4.10;99.90;;;;;;5127927;27;20448;-67
2022/01/31 02:40:11;;;;;;;0.50;0.50;;;4.10;99.90;;;;;;5128036;27;20522;-67
2022/01/31 02:42:58;;;;;;;0.80;0.80;;;4.10;99.90;;;;;;5135714;27;20452;-69
2022/01/31 02:45:45;;;;;;;0.40;0.40;;;4.10;99.90;;;;;;5135498;27;20460;-67
2022/01/31 02:48:35;;;;;;;0.40;0.40;;;4.00;99.90;;;;;;5136204;27;20440;-67
2022/01/31 02:51:24;;;;;;;0.50;0.50;;;4.00;99.90;;;;;;5136002;27;20431;-67
2022/01/31 02:54:12;;;;;;;0.60;0.60;;;4.00;99.90;;;;;;5136129;27;20432;-67
2022/01/31 02:56:59;;;;;;;0.40;0.40;;;4.00;99.90;;;;;;5135636;27;20510;-67
2022/01/31 02:59:46;;;;;;;0.40;0.40;;;4.00;99.90;;;;;;5136035;27;20503;-67
2022/01/31 03:02:33;;;;;;;0.70;0.67;;;4.00;99.90;;;;;;5135425;27;20417;-67
2022/01/31 03:05:20;;;;;;;0.63;0.63;;;4.00;99.90;;;;;;5136223;27;20478;-68
2022/01/31 03:08:07;;;;;;;7.00;1.93;;;4.10;99.90;;;;;;5135741;27;20497;-70
2022/01/31 03:10:55;;;;;;;0.40;0.40;;;4.10;99.90;;;;;;5135437;27;20420;-67
2022/01/31 03:13:42;;;;;;;0.40;0.40;;;3.90;99.90;;;;;;5134818;27;20919;-67
2022/01/31 03:16:29;;;;;;;0.40;0.40;;;4.00;99.90;;;;;;5134708;27;20417;-67
2022/01/31 03:19:17;;;;;;;0.40;0.40;;;4.00;99.90;;;;;;5134859;27;20417;-67
2022/01/31 03:22:05;;;;;;;0.40;0.40;;;4.00;99.90;;;;;;5134592;27;20427;-67
2022/01/31 03:24:51;;;;;;;23.63;10.63;;;4.10;99.90;;;;;;5135266;27;20431;-67
2022/01/31 03:27:40;;;;;;;0.40;0.40;;;4.00;99.90;;;;;;5134229;27;20623;-67
2022/01/31 03:30:27;;;;;;;0.47;0.47;;;4.10;99.90;;;;;;5134975;27;20436;-67
2022/01/31 03:33:14;;;;;;;3.80;1.07;;;3.90;99.90;;;;;;5135117;27;20424;-67
2022/01/31 03:36:01;;;;;;;0.40;0.40;;;3.90;99.90;;;;;;5135170;27;20421;-67
2022/01/31 03:38:49;;;;;;;0.50;0.50;;;3.90;99.90;;;;;;5133297;27;20463;-67
2022/01/31 03:41:36;;;;;;;0.40;0.40;;;3.80;99.90;;;;;;5134585;27;20462;-68
2022/01/31 03:44:25;;;;;;;0.40;0.40;;;3.80;99.90;;;;;;5136114;27;20773;-67
2022/01/31 03:47:11;;;;;;;0.40;0.40;;;3.80;99.90;;;;;;5134210;27;20992;-67
2022/01/31 03:49:58;;;;;;;0.40;0.40;;;3.80;99.90;;;;;;5133955;27;20416;-67
2022/01/31 03:52:46;;;;;;;0.47;0.47;;;3.80;99.90;;;;;;5134951;27;20424;-67
2022/01/31 03:55:33;;;;;;;0.50;0.50;;;3.80;99.90;;;;;;5133484;27;20963;-67
2022/01/31 03:58:20;;;;;;;0.40;0.40;;;3.80;99.90;;;;;;5134092;27;20866;-67
2022/01/31 04:01:08;;;;;;;0.40;0.40;;;3.70;99.90;;;;;;5133781;27;20449;-67
2022/01/31 04:03:55;;;;;;;0.40;0.40;;;3.70;99.90;;;;;;5132599;27;20421;-67
2022/01/31 04:06:42;;;;;;;0.40;0.40;;;3.60;99.90;;;;;;5133156;27;20464;-67
2022/01/31 04:09:29;;;;;;;0.40;0.40;;;3.60;99.90;;;;;;5132861;28;20433;-67
2022/01/31 04:12:16;;;;;;;0.40;0.40;;;3.60;99.90;;;;;;5133877;28;20474;-67
2022/01/31 04:15:03;;;;;;;0.40;0.40;;;3.50;99.90;;;;;;5134541;28;20425;-67
2022/01/31 04:17:52;;;;;;;0.40;0.40;;;3.50;99.90;;;;;;5134739;28;20431;-68
2022/01/31 04:20:39;;;;;;;0.40;0.40;;;3.50;99.90;;;;;;5133986;28;20515;-67
2022/01/31 04:23:27;;;;;;;0.50;0.50;;;3.50;99.90;;;;;;5134223;28;20497;-67
2022/01/31 04:26:15;;;;;;;0.40;0.40;;;3.50;99.90;;;;;;5133908;28;20464;-67
2022/01/31 04:29:07;;;;;;;0.40;0.40;;;3.60;99.90;;;;;;5135517;27;20428;-67
2022/01/31 04:31:54;;;;;;;0.40;0.40;;;3.30;99.90;;;;;;5137967;27;20928;-67
2022/01/31 04:34:43;;;;;;;0.40;0.40;;;3.60;99.90;;;;;;5137653;27;20478;-67
2022/01/31 04:37:30;;;;;;;0.40;0.40;;;3.60;99.90;;;;;;5138105;27;20436;-67
2022/01/31 04:40:17;;;;;;;0.70;0.70;;;3.60;99.90;;;;;;5136976;27;20428;-67
2022/01/31 04:43:04;;;;;;;0.40;0.40;;;3.60;99.90;;;;;;5137704;27;20420;-69
2022/01/31 04:45:51;;;;;;;0.40;0.40;;;3.70;99.90;;;;;;5137911;27;20470;-68
2022/01/31 04:48:38;;;;;;;0.50;0.50;;;3.60;99.90;;;;;;5136529;27;20474;-68
2022/01/31 04:51:27;;;;;;;0.40;0.40;;;3.50;99.90;;;;;;5137877;27;20502;-66
2022/01/31 04:54:13;;;;;;;0.50;0.50;;;3.50;99.90;;;;;;5137274;27;20416;-66
2022/01/31 04:57:00;;;;;;;0.40;0.40;;;3.50;99.90;;;;;;5137382;27;20452;-68
2022/01/31 04:59:48;;;;;;;0.40;0.40;;;3.60;99.90;;;;;;5136843;27;20907;-67
2022/01/31 05:02:35;;;;;;;0.40;0.40;;;3.60;99.90;;;;;;5137225;27;20421;-67
2022/01/31 05:05:22;;;;;;;0.40;0.40;;;3.60;99.90;;;;;;5137265;27;20569;-68
2022/01/31 05:08:11;;;;;;;0.40;0.40;;;3.60;99.90;;;;;;5137470;27;20534;-68
2022/01/31 05:10:58;;;;;;;0.50;0.50;;;3.60;99.90;;;;;;5136844;27;20420;-67
2022/01/31 05:13:46;;;;;;;0.40;0.40;;;3.60;99.90;;;;;;5137233;27;20421;-68
2022/01/31 05:16:33;;;;;;;0.40;0.40;;;3.60;99.90;;;;;;5137264;27;20948;-68
2022/01/31 05:19:20;;;;;;;0.40;0.40;;;3.60;99.90;;;;;;5132767;27;21048;-68
2022/01/31 05:22:06;;;;;;;0.47;0.47;;;3.50;99.90;;;;;;5116856;28;20421;-68
2022/01/31 05:24:55;;;;;;;0.50;0.50;;;3.50;99.90;;;;;;5117018;28;20449;-67
2022/01/31 05:27:42;;;;;;;0.40;0.40;;;3.50;99.90;;;;;;5116440;28;20546;-68
2022/01/31 05:30:28;;;;;;;0.40;0.40;;;3.50;99.90;;;;;;5116443;28;20566;-68
2022/01/31 05:33:15;;;;;;;0.40;0.40;;;3.50;99.90;;;;;;5116596;28;20417;-67
2022/01/31 05:36:02;;;;;;;0.40;0.40;;;3.70;99.90;;;;;;5116491;28;20502;-68
2022/01/31 05:38:49;;;;;;;0.50;0.50;;;3.60;99.90;;;;;;5116914;27;20433;-68
2022/01/31 05:41:37;;;;;;;0.40;0.40;;;3.60;99.90;;;;;;5115711;28;20425;-68
2022/01/31 05:44:25;;;;;;;0.40;0.40;;;3.60;99.90;;;;;;5116743;28;20448;-68
2022/01/31 05:47:12;;;;;;;0.40;0.40;;;3.60;99.90;;;;;;5116538;28;21066;-66
2022/01/31 05:49:59;;;;;;;0.40;0.40;;;3.60;99.90;;;;;;5116483;28;20429;-68
2022/01/31 05:52:46;;;;;;;0.40;0.40;;;3.60;99.90;;;;;;5116133;28;20479;-68
2022/01/31 05:55:33;;;;;;;0.40;0.40;;;3.60;99.90;;;;;;5116658;28;20503;-68
2022/01/31 05:58:21;;;;;;;0.40;0.40;;;3.60;99.90;;;;;;5116246;28;21014;-68
2022/01/31 06:01:08;;;;;;;0.40;0.40;;;3.70;99.90;;;;;;5116448;28;20418;-67
2022/01/31 06:03:55;;;;;;;0.40;0.40;;;3.60;99.90;;;;;;5115986;28;20432;-67
2022/01/31 06:06:42;;;;;;;0.50;0.50;;;3.70;99.90;;;;;;5115195;28;20559;-67
2022/01/31 06:09:31;;;;;;;0.40;0.40;;;3.70;99.90;;;;;;5116587;28;20460;-66
2022/01/31 06:12:18;;;;;;;0.50;0.50;;;3.70;99.90;;;;;;5116409;28;20422;-67
2022/01/31 06:15:08;;;;;;;0.40;0.40;;;3.70;99.90;;;;;;5116583;28;20426;-68
2022/01/31 06:17:55;;;;;;;0.40;0.40;;;3.70;99.90;;;;;;5116041;28;20443;-68
2022/01/31 06:20:44;;;;;;;0.40;0.40;;;3.70;99.90;;;;;;5130823;27;20417;-68
2022/01/31 06:23:30;;;;;;;0.40;0.40;;;3.60;99.90;;;;;;5136307;27;20432;-68
2022/01/31 06:26:18;;;;;;;0.40;0.40;;;3.60;99.90;;;;;;5135001;27;21005;-68
2022/01/31 06:29:05;;;;;;;0.40;0.40;;;3.50;99.90;;;;;;5135893;27;20432;-67
2022/01/31 06:31:53;;;;;;;0.40;0.40;;;3.50;99.90;;;;;;5135760;27;20473;-68
2022/01/31 06:34:40;;;;;;;0.40;0.40;;;3.50;99.90;;;;;;5135938;27;20507;-68
2022/01/31 06:37:27;;;;;;;0.40;0.40;;;3.50;99.90;;;;;;5136358;27;20519;-68
2022/01/31 06:40:14;;;;;;;0.40;0.40;;;3.40;99.90;;;;;;5137134;27;20429;-68
2022/01/31 06:43:01;;;;;;;0.40;0.40;;;3.40;99.90;;;;;;5135646;27;20485;-68
2022/01/31 06:45:48;;;;;;;0.40;0.40;;;3.40;99.90;;;;;;5135361;27;20486;-68
2022/01/31 06:48:36;;;;;;;0.40;0.40;;;3.40;99.90;;;;;;5135067;27;20549;-68
2022/01/31 06:51:23;;;;;;;0.40;0.40;;;3.40;99.90;;;;;;5136274;27;20507;-68
2022/01/31 06:54:10;;;;;;;0.40;0.40;;;3.40;99.90;;;;;;5150229;27;20470;-68
2022/01/31 06:56:58;;;;;;;0.50;0.50;;;3.40;99.90;;;;;;5152103;27;20463;-67
2022/01/31 06:59:45;;;;;;;0.40;0.40;;;3.30;99.90;;;;;;5152426;27;20873;-68
2022/01/31 07:02:32;;;;;;;0.40;0.40;;;3.30;99.90;;;;;;5152683;27;20865;-69
2022/01/31 07:05:20;;;;;;;0.40;0.40;;;3.30;99.90;;;;;;5139725;27;21028;-68
2022/01/31 07:08:07;;;;;;;0.50;0.50;;;3.30;99.90;;;;;;5135713;27;20488;-67
2022/01/31 07:10:54;;;;;;;0.50;0.50;;;3.20;99.90;;;;;;5135264;27;20807;-67
2022/01/31 07:13:42;;;;;;;0.50;0.50;;;3.20;99.90;;;;;;5134706;27;20424;-67
2022/01/31 07:16:29;;;;;;;0.40;0.40;;;3.20;99.90;;;;;;5134817;27;20513;-68
2022/01/31 07:19:17;;;;;;;0.40;0.40;;;3.40;99.90;;;;;;5132057;27;20422;-68
2022/01/31 07:22:10;;;;;;;0.40;0.40;;;3.30;99.90;;;;;;5125780;28;20429;-67
2022/01/31 07:25:03;;;;;;;0.50;0.50;;;3.40;99.90;;;;;;5125793;28;20430;-70
2022/01/31 07:27:49;;;;;;;0.40;0.40;;;3.40;99.90;;;;;;5127878;28;20473;-68
2022/01/31 07:30:38;;;;;;;0.40;0.40;;;3.50;99.90;;;;;;5119206;28;20449;-69
2022/01/31 07:33:25;;;;;;;0.40;0.40;;;3.50;99.90;;;;;;5117251;28;20879;-68
2022/01/31 07:36:12;;;;;;;0.40;0.40;;;3.60;99.90;;;;;;5128973;28;20447;-68
2022/01/31 07:39:00;;;;;;;0.50;0.50;;;3.60;99.90;;;;;;5127863;28;20449;-68
2022/01/31 07:41:48;;;;;;;0.40;0.40;;;3.70;99.90;;;;;;5127526;28;20517;-67
2022/01/31 07:44:35;;;;;;;0.40;0.40;;;3.70;99.90;;;;;;5127665;28;20422;-67
2022/01/31 07:47:22;;;;;;;0.40;0.40;;;3.80;99.90;;;;;;5128241;28;20465;-68
2022/01/31 07:50:11;;;;;;;0.40;0.40;;;3.90;99.90;;;;;;5127967;28;20417;-67
2022/01/31 07:52:58;;;;;;;0.40;0.40;;;3.90;99.90;;;;;;5129304;28;20501;-66
2022/01/31 07:55:46;;;;;;;0.40;0.40;;;3.90;99.90;;;;;;5129335;28;20459;-70
2022/01/31 07:58:33;;;;;;;0.43;0.43;;;3.90;99.90;;;;;;5129088;28;20434;-68
2022/01/31 08:01:20;;;;;;;0.40;0.40;;;3.90;99.90;;;;;;5128385;28;20409;-67
2022/01/31 08:04:07;;;;;;;0.40;0.40;;;3.90;99.90;;;;;;5127325;28;20436;-68
2022/01/31 08:06:54;;;;;;;0.40;0.40;;;4.00;99.90;;;;;;5114566;28;20456;-67
2022/01/31 08:09:41;;;;;;;0.40;0.40;;;3.80;99.90;;;;;;5114895;28;20422;-68
2022/01/31 08:12:30;;;;;;;0.40;0.40;;;4.00;99.90;;;;;;5115134;28;20798;-68
2022/01/31 08:15:24;;;;;;;0.40;0.40;;;3.90;99.90;;;;;;5115743;28;20421;-67
2022/01/31 08:18:11;;;;;;;0.40;0.40;;;4.00;99.90;;;;;;5115114;28;20484;-68
2022/01/31 08:20:58;;;;;;;0.40;0.40;;;4.00;99.90;;;;;;5131373;28;20425;-68
2022/01/31 08:23:45;;;;;;;0.40;0.40;;;4.10;99.90;;;;;;5134475;28;20424;-67
2022/01/31 08:26:33;;;;;;;0.40;0.40;;;4.20;99.90;;;;;;5135264;28;20440;-68
2022/01/31 08:29:25;;;;;;;0.40;0.40;;;4.30;99.90;;;;;;5134628;28;20420;-68
2022/01/31 08:32:18;;;;;;;0.40;0.40;;;4.30;99.90;;;;;;5134797;28;21050;-68
2022/01/31 08:38:10;;;;;;;0.40;0.40;;;4.50;99.90;;;;;;5134702;28;20433;-67
2022/01/31 08:40:58;;;;;;;0.40;0.40;;;4.60;99.90;;;;;;5134338;28;20497;-68
2022/01/31 08:43:45;;;;;;;0.70;0.70;;;4.60;99.90;;;;;;5134251;28;20412;-68
2022/01/31 08:46:34;;;;;;;0.40;0.40;;;4.60;99.90;;;;;;5134033;28;20477;-69
2022/01/31 08:49:21;;;;;;;0.50;0.50;;;4.60;99.90;;;;;;5135181;28;20421;-68
2022/01/31 08:52:08;;;;;;;0.40;0.40;;;4.60;99.90;;;;;;5135786;28;20531;-68
2022/01/31 08:54:55;;;;;;;0.40;0.40;;;4.70;99.90;;;;;;5135259;28;20908;-68
2022/01/31 08:57:42;;;;;;;0.40;0.40;;;4.80;99.90;;;;;;5134415;28;20440;-68
2022/01/31 09:00:35;;;;;;;0.40;0.40;;;4.70;99.90;;;;;;5135078;28;20486;-68
2022/01/31 09:03:40;;;;;;;0.40;0.40;;;4.70;99.90;;;;;;5134177;28;20416;-68
2022/01/31 09:06:29;;;;;;;0.40;0.40;;;4.70;99.90;;;;;;5134581;28;20420;-68
2022/01/31 09:09:17;;;;;;;0.40;0.40;;;4.80;99.90;;;;;;5134492;28;20464;-68
2022/01/31 09:12:07;;;;;;;0.50;0.50;;;4.60;99.90;;;;;;5134322;28;20416;-67
2022/01/31 09:14:54;;;;;;;0.40;0.40;;;4.60;99.90;;;;;;5134935;27;20432;-68
2022/01/31 09:17:41;;;;;;;0.43;0.43;;;4.70;99.90;;;;;;5137945;27;20968;-69
2022/01/31 09:20:29;;;;;;;0.47;0.47;;;4.80;99.90;;;;;;5124862;27;20449;-68
2022/01/31 09:23:17;;;;;;;0.40;0.40;;;4.80;99.90;;;;;;5118263;28;20425;-67
2022/01/31 09:26:05;;;;;;;0.40;0.40;;;4.90;99.90;;;;;;5118542;28;20481;-68
2022/01/31 09:28:52;;;;;;;0.60;0.60;;;5.10;99.90;;;;;;5118196;27;21031;-68
2022/01/31 09:31:39;;;;;;;0.40;0.40;;;5.00;99.90;;;;;;5117281;28;20815;-68
2022/01/31 09:34:26;;;;;;;0.40;0.40;;;5.10;99.90;;;;;;5117284;28;20459;-69
2022/01/31 09:37:15;;;;;;;0.40;0.40;;;5.10;99.90;;;;;;5116800;28;20448;-67
2022/01/31 09:40:04;;;;;;;0.40;0.40;;;5.10;99.90;;;;;;5117097;28;20995;-68
2022/01/31 09:43:08;;;;;;;0.50;0.50;;;5.20;99.90;;;;;;5117323;28;20425;-68
2022/01/31 09:46:04;;;;;;;0.40;0.40;;;5.20;99.90;;;;;;5118420;27;20425;-69
2022/01/31 09:48:51;;;;;;;0.40;0.40;;;5.30;99.90;;;;;;5117222;28;20831;-68
2022/01/31 09:51:38;;;;;;;0.40;0.40;;;5.20;99.90;;;;;;5117749;28;20429;-69
2022/01/31 09:54:28;;;;;;;0.40;0.40;;;5.30;99.90;;;;;;5116913;28;20444;-68
2022/01/31 09:57:15;;;;;;;0.40;0.40;;;5.30;99.90;;;;;;5117163;28;20445;-68
2022/01/31 10:00:03;;;;;;;0.40;0.40;;;5.50;99.90;;;;;;5117393;28;20499;-69
2022/01/31 10:03:05;;;;;;;0.40;0.40;;;5.60;99.90;;;;;;5117637;28;20422;-68
2022/01/31 10:05:52;;;;;;;0.50;0.50;;;5.60;99.90;;;;;;5116898;28;20452;-68
2022/01/31 10:08:39;;;;;;;0.50;0.50;;;5.80;99.90;;;;;;5116320;28;20461;-67
2022/01/31 10:11:29;;;;;;;0.40;0.40;;;5.80;99.90;;;;;;5116230;28;20926;-69
2022/01/31 10:17:26;;;;;;;0.40;0.40;;;5.90;99.90;;;;;;5116877;28;20949;-68
2022/01/31 10:20:25;;;;;;;0.40;0.40;;;6.00;99.90;;;;;;5127778;27;20452;-70
2022/01/31 10:23:15;;;;;;;0.40;0.40;;;6.00;99.90;;;;;;5136327;27;20425;-70
2022/01/31 10:26:03;;;;;;;0.40;0.40;;;6.30;99.90;;;;;;5135732;27;20417;-70
2022/01/31 10:28:51;;;;;;;0.47;0.47;;;6.20;99.90;;;;;;5136438;27;20457;-68
2022/01/31 10:31:39;;;;;;;0.40;0.40;;;6.30;99.90;;;;;;5135447;27;20417;-68
2022/01/31 10:34:27;;;;;;;0.43;0.43;;;6.40;99.90;;;;;;5135584;27;20842;-68
2022/01/31 10:37:18;;;;;;;0.40;0.40;;;6.40;99.90;;;;;;5135513;27;20449;-69
2022/01/31 10:43:38;;;;;;;0.40;0.40;;;6.60;99.90;;;;;;5135361;27;20417;-68
2022/01/31 10:50:42;;;;;;;0.40;0.40;;;6.60;99.90;;;;;;5134935;27;20804;-71
2022/01/31 10:53:03;;;;;;;0.40;0.40;;;6.80;99.90;;;;;;5135901;27;20416;-69
2022/01/31 10:55:54;;;;;;;0.40;0.40;;;6.90;99.90;;;;;;5136377;27;20436;-68
2022/01/31 10:58:55;;;;;;;0.40;0.40;;;6.80;99.90;;;;;;5136201;27;20892;-67
2022/01/31 11:01:47;;;;;;;0.40;0.40;;;6.70;99.90;;;;;;5135325;27;20927;-70
2022/01/31 11:04:36;;;;;;;0.40;0.40;;;6.80;99.90;;;;;;5134962;27;20470;-71
2022/01/31 11:07:26;;;;;;;0.40;0.40;;;6.70;99.90;;;;;;5134275;27;20832;-68
2022/01/31 11:10:12;;;;;;;0.50;0.50;;;6.60;99.90;;;;;;5134541;27;20474;-70
2022/01/31 11:12:59;;;;;;;0.40;0.40;;;6.60;99.90;;;;;;5135755;27;20514;-68
2022/01/31 11:15:46;;;;;;;0.40;0.40;;;6.60;99.90;;;;;;5136863;27;20438;-69
2022/01/31 11:18:36;;;;;;;0.40;0.40;;;6.40;99.90;;;;;;5137177;27;20853;-68
2022/01/31 11:21:28;;;;;;;0.40;0.40;;;6.30;99.90;;;;;;5117338;27;20534;-70
2022/01/31 11:24:20;;;;;;;0.40;0.40;;;6.30;99.90;;;;;;5116119;28;20432;-69
2022/01/31 11:27:10;;;;;;;0.40;0.40;;;6.40;99.90;;;;;;5115447;28;20443;-69
2022/01/31 11:29:58;;;;;;;0.40;0.40;;;6.50;99.90;;;;;;5115817;28;21004;-70
2022/01/31 11:32:46;;;;;;;0.40;0.40;;;6.50;99.90;;;;;;5115865;28;20434;-69
2022/01/31 11:35:34;;;;;;;0.40;0.40;;;6.40;99.90;;;;;;5115636;28;20437;-70
2022/01/31 11:38:22;;;;;;;0.40;0.40;;;6.70;99.90;;;;;;5114405;28;20438;-69
2022/01/31 11:41:09;;;;;;;0.50;0.50;;;6.60;99.90;;;;;;5116201;28;20451;-69
2022/01/31 11:44:03;;;;;;;0.40;0.40;;;6.60;99.90;;;;;;5115943;28;20425;-70
2022/01/31 11:46:51;;;;;;;0.40;0.40;;;6.80;99.90;;;;;;5115181;28;20495;-69
2022/01/31 11:49:46;;;;;;;0.40;0.40;;;6.60;99.90;;;;;;5114236;28;20518;-71
2022/01/31 11:52:44;;;;;;;0.40;0.40;;;6.70;99.90;;;;;;5115776;28;20558;-68
2022/01/31 11:55:33;;;;;;;0.40;0.40;;;6.60;99.90;;;;;;5114787;28;20811;-69
2022/01/31 11:58:20;;;;;;;0.40;0.40;;;6.70;99.90;;;;;;5115247;28;20448;-70
2022/01/31 12:01:08;;;;;;;0.40;0.40;;;6.60;99.90;;;;;;5115311;28;20952;-70
2022/01/31 12:03:58;;;;;;;0.40;0.40;;;6.70;99.90;;;;;;5113288;28;20441;-69
2022/01/31 12:06:45;;;;;;;0.40;0.40;;;6.80;99.90;;;;;;5115086;28;20472;-70
2022/01/31 12:09:34;;;;;;;0.40;0.40;;;6.80;99.90;;;;;;5115448;28;20562;-68
2022/01/31 12:12:35;;;;;;;0.40;0.40;;;6.70;99.90;;;;;;5115631;28;20429;-68
2022/01/31 12:15:46;;;;;;;0.40;0.40;;;6.80;99.90;;;;;;5115813;28;20417;-68
2022/01/31 12:18:49;;;;;;;0.47;0.47;;;7.00;99.90;;;;;;5114942;28;20634;-68
2022/01/31 12:24:46;;;;;;;0.40;0.40;;;7.10;99.90;;;;;;5112055;28;20433;-68
2022/01/31 12:27:33;;;;;;;0.40;0.40;;;7.20;99.90;;;;;;5112833;28;20465;-68
2022/01/31 12:30:35;;;;;;;0.40;0.40;;;7.20;99.90;;;;;;5112969;28;20457;-69
2022/01/31 12:33:41;;;;;;;0.40;0.40;;;7.20;99.90;;;;;;5113710;28;20827;-67
2022/01/31 12:36:47;;;;;;;0.40;0.40;;;7.20;99.90;;;;;;5112435;28;20443;-67
2022/01/31 12:39:58;;;;;;;0.40;0.40;;;7.30;99.90;;;;;;5117637;28;21086;-68
2022/01/31 12:46:16;;;;;;;0.40;0.40;;;7.30;99.90;;;;;;5113714;28;20424;-70
2022/01/31 12:49:10;;;;;;;0.40;0.40;;;7.30;99.90;;;;;;5113774;28;20838;-68
2022/01/31 12:52:00;;;;;;;0.40;0.40;;;7.30;99.90;;;;;;5116938;28;20450;-68
2022/01/31 12:54:53;;;;;;;0.40;0.40;;;7.40;99.90;;;;;;5118041;28;20857;-68
2022/01/31 12:57:47;;;;;;;0.40;0.40;;;7.50;99.90;;;;;;5117308;28;20441;-67
2022/01/31 13:00:39;;;;;;;0.40;0.40;;;7.50;99.90;;;;;;5116240;28;20644;-68
2022/01/31 13:03:33;;;;;;;0.40;0.40;;;7.50;99.90;;;;;;5117335;28;20425;-69
2022/01/31 13:06:38;;;;;;;0.40;0.40;;;7.40;99.90;;;;;;5117516;28;20451;-68
2022/01/31 13:09:27;;;;;;;0.40;0.40;;;7.20;99.90;;;;;;5116424;28;20889;-67
2022/01/31 13:12:17;;;;;;;0.40;0.40;;;7.00;99.90;;;;;;5116504;28;20503;-68
2022/01/31 13:15:05;;;;;;;0.40;0.40;;;6.90;99.90;;;;;;5116193;28;20513;-68
2022/01/31 13:18:03;;;;;;;0.40;0.40;;;6.70;99.90;;;;;;5115689;28;20445;-69
2022/01/31 13:20:50;;;;;;;0.40;0.40;;;6.60;99.90;;;;;;5131716;27;20798;-67
2022/01/31 13:23:39;;;;;;;0.40;0.40;;;6.50;99.90;;;;;;5135469;27;20793;-68
2022/01/31 13:26:26;;;;;;;0.40;0.40;;;6.40;99.90;;;;;;5136866;27;20429;-67
2022/01/31 13:29:26;;;;;;;0.40;0.40;;;6.30;99.90;;;;;;5134838;27;20984;-68
2022/01/31 13:32:19;;;;;;;0.40;0.40;;;6.20;99.90;;;;;;5136655;27;20911;-67
2022/01/31 13:35:09;;;;;;;0.40;0.40;;;6.10;99.90;;;;;;5136141;27;20416;-68
2022/01/31 13:37:59;;;;;;;0.40;0.40;;;6.10;99.90;;;;;;5142234;27;20463;-68
2022/01/31 13:40:50;;;;;;;0.40;0.40;;;6.00;99.90;;;;;;5143405;27;20424;-68
2022/01/31 13:43:39;;;;;;;0.40;0.40;;;6.10;99.90;;;;;;5141714;27;20432;-68
2022/01/31 13:46:36;;;;;;;0.40;0.40;;;6.10;99.90;;;;;;5140900;27;20417;-68
2022/01/31 13:49:29;;;;;;;0.40;0.40;;;6.10;99.90;;;;;;5137657;27;20459;-68
2022/01/31 13:52:16;;;;;;;0.40;0.40;;;6.10;99.90;;;;;;5135564;27;20937;-68
2022/01/31 13:55:04;;;;;;;0.93;0.93;;;6.00;99.90;;;;;;5136535;27;20854;-67
2022/01/31 13:57:51;;;;;;;0.40;0.40;;;6.00;99.90;;;;;;5136960;27;20444;-68
2022/01/31 14:00:42;;;;;;;0.40;0.40;;;5.90;99.90;;;;;;5134500;27;20466;-69
2022/01/31 14:03:31;;;;;;;0.40;0.40;;;5.90;99.90;;;;;;5136594;27;20939;-68
2022/01/31 14:06:20;;;;;;;0.40;0.40;;;5.80;99.90;;;;;;5135576;27;20970;-68
2022/01/31 14:09:09;;;;;;;0.40;0.40;;;5.80;99.90;;;;;;5137012;27;21002;-68
2022/01/31 14:11:56;;;;;;;0.40;0.40;;;5.80;99.90;;;;;;5135884;27;20452;-68
2022/01/31 14:14:45;;;;;;;0.40;0.40;;;5.90;99.90;;;;;;5135972;27;20425;-68
2022/01/31 14:17:32;;;;;;;0.50;0.50;;;6.10;99.90;;;;;;5135230;27;20441;-68
2022/01/31 14:20:20;;;;;;;0.40;0.40;;;6.30;99.90;;;;;;5135816;27;20454;-68
2022/01/31 14:23:10;;;;;;;0.40;0.40;;;6.30;99.90;;;;;;5135351;27;20490;-68
2022/01/31 14:25:57;;;;;;;0.40;0.40;;;6.30;99.90;;;;;;5135435;27;20870;-70
2022/01/31 14:28:46;;;;;;;0.50;0.50;;;6.40;99.90;;;;;;5134595;27;20455;-68
2022/01/31 14:31:34;;;;;;;0.40;0.40;;;6.40;99.90;;;;;;5134838;27;20432;-69
2022/01/31 14:34:24;;;;;;;0.40;0.40;;;6.40;99.90;;;;;;5135065;27;20426;-68
2022/01/31 14:37:12;;;;;;;0.40;0.40;;;6.30;99.90;;;;;;5135214;27;20464;-68
2022/01/31 14:40:19;;;;;;;0.40;0.40;;;6.20;99.90;;;;;;5135124;27;20459;-68
2022/01/31 14:43:15;;;;;;;0.40;0.40;;;6.10;99.90;;;;;;5135207;27;20818;-69
2022/01/31 14:49:09;;;;;;;0.40;0.40;;;5.80;99.90;;;;;;5135335;27;20487;-68
2022/01/31 14:52:04;;;;;;;0.40;0.40;;;5.70;99.90;;;;;;5134652;27;20932;-68
2022/01/31 14:55:02;;;;;;;0.40;0.40;;;5.60;99.90;;;;;;5134333;27;20439;-68
2022/01/31 14:57:50;;;;;;;0.40;0.40;;;5.40;99.90;;;;;;5135665;27;20440;-68
2022/01/31 15:00:38;;;;;;;0.40;0.40;;;5.10;99.90;;;;;;5135875;27;20929;-68
2022/01/31 15:03:27;;;;;;;0.40;0.40;;;4.90;99.90;;;;;;5134491;27;20432;-68
2022/01/31 15:06:14;;;;;;;0.40;0.40;;;4.80;99.90;;;;;;5134466;27;20459;-67
2022/01/31 15:09:01;;;;;;;0.40;0.40;;;4.60;99.90;;;;;;5134796;27;20546;-68
2022/01/31 15:11:49;;;;;;;0.40;0.40;;;4.50;99.90;;;;;;5134636;27;20440;-67
2022/01/31 15:14:36;;;;;;;0.40;0.40;;;4.40;99.90;;;;;;5133942;27;20474;-67